createdAt,value
2022-08-28T00:00:45.424Z,4.15
2022-08-28T00:03:13.728Z,4.65
2022-08-28T00:05:43.278Z,3.88
2022-08-28T00:08:12.381Z,7.32
2022-08-28T00:10:40.360Z,3.65
2022-08-28T00:13:09.153Z,5.30
2022-08-28T00:15:39.021Z,5.05
2022-08-28T00:18:06.431Z,4.97
2022-08-28T00:20:34.779Z,4.57
2022-08-28T00:23:02.254Z,4.05
2022-08-28T00:25:31.653Z,5.80
2022-08-28T00:28:05.192Z,5.68
2022-08-28T00:30:38.089Z,4.28
2022-08-28T00:33:12.985Z,5.50
2022-08-28T00:35:41.203Z,3.60
2022-08-28T00:38:09.800Z,5.88
2022-08-28T00:40:38.229Z,5.35
2022-08-28T00:43:06.544Z,3.33
2022-08-28T00:45:39.286Z,5.50
2022-08-28T00:48:06.370Z,5.30
2022-08-28T00:50:56.766Z,6.35
2022-08-28T00:53:29.906Z,4.97
2022-08-28T00:56:01.369Z,5.25
2022-08-28T00:58:29.046Z,3.40
2022-08-28T01:00:55.916Z,5.38
2022-08-28T01:03:25.046Z,3.55
2022-08-28T01:05:53.772Z,4.75
2022-08-28T01:08:20.522Z,3.10
2022-08-28T01:10:54.712Z,3.13
2022-08-28T01:13:23.397Z,3.80
2022-08-28T01:15:51.266Z,7.43
2022-08-28T01:18:19.419Z,4.63
2022-08-28T01:20:59.116Z,7.53
2022-08-28T01:23:45.719Z,3.90
2022-08-28T01:26:12.775Z,4.07
2022-08-28T01:28:40.801Z,6.45
2022-08-28T01:31:11.522Z,5.82
2022-08-28T01:33:42.348Z,4.10
2022-08-28T01:36:11.988Z,6.55
2022-08-28T01:38:40.291Z,4.60
2022-08-28T01:41:07.339Z,7.20
2022-08-28T01:43:34.059Z,5.25
2022-08-28T01:46:04.384Z,6.63
2022-08-28T01:48:34.956Z,4.72
2022-08-28T01:51:02.821Z,4.53
2022-08-28T01:53:33.020Z,4.95
2022-08-28T01:56:01.653Z,6.90
2022-08-28T01:58:30.219Z,5.68
2022-08-28T02:00:57.450Z,5.75
2022-08-28T02:03:24.178Z,5.88
2022-08-28T02:05:52.122Z,5.60
2022-08-28T02:08:19.367Z,5.85
2022-08-28T02:10:47.228Z,6.55
2022-08-28T02:13:14.221Z,4.82
2022-08-28T02:15:43.169Z,7.60
2022-08-28T02:18:10.473Z,4.97
2022-08-28T02:20:37.861Z,4.90
2022-08-28T02:23:05.980Z,5.78
2022-08-28T02:25:33.106Z,8.20
2022-08-28T02:27:59.983Z,4.38
2022-08-28T02:30:26.873Z,5.88
2022-08-28T02:32:54.084Z,10.05
2022-08-28T02:35:22.663Z,5.40
2022-08-28T02:37:49.906Z,3.63
2022-08-28T02:40:19.582Z,5.65
2022-08-28T02:42:46.336Z,5.82
2022-08-28T02:45:14.663Z,5.50
2022-08-28T02:47:43.599Z,5.32
2022-08-28T02:50:13.050Z,6.65
2022-08-28T02:52:41.269Z,5.57
2022-08-28T02:55:09.536Z,5.57
2022-08-28T02:57:36.420Z,7.50
2022-08-28T03:00:12.101Z,7.10
2022-08-28T03:02:40.711Z,6.97
2022-08-28T03:05:08.955Z,6.28
2022-08-28T03:07:35.824Z,5.72
2022-08-28T03:10:03.395Z,5.63
2022-08-28T03:12:30.045Z,7.55
2022-08-28T03:14:56.835Z,8.07
2022-08-28T03:17:23.557Z,8.18
2022-08-28T03:19:51.014Z,8.80
2022-08-28T03:22:39.113Z,6.35
2022-08-28T03:25:07.091Z,5.47
2022-08-28T03:27:34.135Z,7.95
2022-08-28T03:30:02.635Z,7.88
2022-08-28T03:32:29.540Z,6.78
2022-08-28T03:34:56.255Z,10.10
2022-08-28T03:37:22.955Z,7.05
2022-08-28T03:39:49.853Z,9.05
2022-08-28T03:42:17.231Z,7.30
2022-08-28T03:44:44.013Z,7.95
2022-08-28T03:47:12.193Z,7.10
2022-08-28T03:49:39.773Z,8.30
2022-08-28T03:52:06.527Z,7.82
2022-08-28T03:54:33.184Z,6.85
2022-08-28T03:57:00.368Z,12.02
2022-08-28T03:59:33.511Z,7.93
2022-08-28T04:02:00.400Z,9.93
2022-08-28T04:04:27.819Z,7.45
2022-08-28T04:06:54.509Z,9.70
2022-08-28T04:09:21.213Z,7.38
2022-08-28T04:11:47.842Z,6.95
2022-08-28T04:14:14.485Z,8.75
2022-08-28T04:16:41.461Z,7.75
2022-08-28T04:19:08.166Z,9.88
2022-08-28T04:21:34.806Z,6.35
2022-08-28T04:24:01.498Z,7.38
2022-08-28T04:26:29.177Z,7.82
2022-08-28T04:28:56.361Z,7.85
2022-08-28T04:31:32.401Z,8.63
2022-08-28T04:34:04.925Z,6.93
2022-08-28T04:36:33.523Z,6.53
2022-08-28T04:39:01.519Z,6.03
2022-08-28T04:41:28.777Z,9.35
2022-08-28T04:43:57.428Z,8.25
2022-08-28T04:46:24.980Z,7.97
2022-08-28T04:48:52.115Z,7.55
2022-08-28T04:51:20.297Z,7.43
2022-08-28T04:53:47.389Z,7.22
2022-08-28T04:56:14.922Z,8.23
2022-08-28T04:58:43.633Z,9.63
2022-08-28T05:01:18.644Z,8.23
2022-08-28T05:03:47.032Z,8.15
2022-08-28T05:06:15.919Z,6.60
2022-08-28T05:08:42.860Z,8.20
2022-08-28T05:11:12.251Z,8.10
2022-08-28T05:13:38.992Z,7.07
2022-08-28T05:16:06.322Z,8.25
2022-08-28T05:18:33.326Z,9.00
2022-08-28T05:21:01.750Z,8.30
2022-08-28T05:23:29.165Z,7.03
2022-08-28T05:25:56.254Z,8.65
2022-08-28T05:28:26.315Z,7.95
2022-08-28T05:30:53.099Z,7.15
2022-08-28T05:33:20.093Z,8.10
2022-08-28T05:35:47.555Z,7.43
2022-08-28T05:38:16.579Z,8.27
2022-08-28T05:40:49.023Z,9.02
2022-08-28T05:43:16.989Z,10.25
2022-08-28T05:45:43.908Z,8.55
2022-08-28T05:48:11.827Z,10.07
2022-08-28T05:50:39.440Z,8.02
2022-08-28T05:53:11.265Z,7.75
2022-08-28T05:55:40.749Z,11.27
2022-08-28T05:58:26.187Z,8.20
2022-08-28T06:00:52.841Z,11.98
2022-08-28T06:03:19.504Z,12.25
2022-08-28T06:05:46.208Z,11.57
2022-08-28T06:08:13.359Z,7.95
2022-08-28T06:10:44.713Z,10.15
2022-08-28T06:15:45.433Z,10.38
2022-08-28T06:18:13.262Z,10.68
2022-08-28T06:20:42.202Z,15.90
2022-08-28T06:23:13.264Z,10.15
2022-08-28T06:25:41.157Z,9.85
2022-08-28T06:28:10.990Z,11.40
2022-08-28T06:30:40.156Z,10.88
2022-08-28T06:33:09.577Z,10.75
2022-08-28T06:35:41.693Z,12.63
2022-08-28T06:38:09.260Z,11.07
2022-08-28T06:40:46.726Z,13.00
2022-08-28T06:43:15.271Z,11.90
2022-08-28T06:45:43.296Z,12.02
2022-08-28T06:48:11.154Z,13.95
2022-08-28T06:50:42.041Z,14.10
2022-08-28T06:53:10.213Z,14.80
2022-08-28T06:55:37.859Z,14.68
2022-08-28T06:58:09.070Z,15.45
2022-08-28T07:00:36.903Z,15.55
2022-08-28T07:03:07.812Z,18.02
2022-08-28T07:05:34.957Z,16.65
2022-08-28T07:08:02.167Z,16.33
2022-08-28T07:10:31.250Z,17.77
2022-08-28T07:13:00.558Z,16.80
2022-08-28T07:15:27.886Z,17.05
2022-08-28T07:17:54.967Z,20.02
2022-08-28T07:20:23.438Z,18.17
2022-08-28T07:22:54.079Z,17.80
2022-08-28T07:25:26.693Z,21.60
2022-08-28T07:27:53.781Z,21.58
2022-08-28T07:30:20.968Z,21.55
2022-08-28T07:32:49.744Z,21.13
2022-08-28T07:35:17.376Z,25.15
2022-08-28T07:37:44.492Z,23.63
2022-08-28T07:40:12.239Z,20.90
2022-08-28T07:42:58.016Z,22.88
2022-08-28T07:45:26.097Z,20.48
2022-08-28T07:47:53.158Z,20.67
2022-08-28T07:50:20.351Z,18.33
2022-08-28T07:52:47.416Z,20.23
2022-08-28T07:55:14.568Z,21.33
2022-08-28T07:57:43.164Z,18.75
2022-08-28T08:00:11.088Z,17.25
2022-08-28T08:02:38.140Z,17.45
2022-08-28T08:05:05.494Z,13.48
2022-08-28T08:07:33.152Z,13.38
2022-08-28T08:10:00.233Z,15.20
2022-08-28T08:12:29.354Z,14.40
2022-08-28T08:14:56.620Z,16.02
2022-08-28T08:17:23.700Z,14.27
2022-08-28T08:19:50.889Z,15.85
2022-08-28T08:22:18.325Z,15.68
2022-08-28T08:24:45.499Z,17.35
2022-08-28T08:27:13.068Z,16.33
2022-08-28T08:29:40.166Z,15.77
2022-08-28T08:32:08.903Z,14.55
2022-08-28T08:34:37.670Z,17.45
2022-08-28T08:37:05.734Z,14.93
2022-08-28T08:39:33.780Z,15.25
2022-08-28T08:42:01.748Z,16.67
2022-08-28T08:44:43.113Z,16.73
2022-08-28T08:47:17.578Z,17.20
2022-08-28T08:49:57.212Z,15.48
2022-08-28T08:52:33.391Z,16.45
2022-08-28T08:55:09.935Z,14.93
2022-08-28T08:57:38.034Z,18.70
2022-08-28T09:00:15.182Z,17.42
2022-08-28T09:02:50.888Z,16.05
2022-08-28T09:05:20.628Z,16.92
2022-08-28T09:07:56.771Z,19.02
2022-08-28T09:10:25.253Z,17.50
2022-08-28T09:12:55.188Z,18.30
2022-08-28T09:15:33.788Z,17.58
2022-08-28T09:18:21.322Z,21.17
2022-08-28T09:20:56.134Z,20.73
2022-08-28T09:23:24.239Z,23.42
2022-08-28T09:25:53.933Z,20.73
2022-08-28T09:28:23.157Z,20.73
2022-08-28T09:30:55.463Z,21.63
2022-08-28T09:33:48.657Z,19.90
2022-08-28T09:36:21.903Z,21.55
2022-08-28T09:39:04.227Z,22.98
2022-08-28T09:41:50.122Z,21.58
2022-08-28T09:44:17.541Z,19.60
2022-08-28T09:46:49.852Z,21.13
2022-08-28T09:49:22.558Z,21.05
2022-08-28T09:51:50.536Z,22.55
2022-08-28T09:54:20.532Z,21.95
2022-08-28T09:56:48.747Z,22.83
2022-08-28T09:59:17.226Z,23.92
2022-08-28T10:01:50.089Z,23.67
2022-08-28T10:04:17.851Z,23.33
2022-08-28T10:06:49.816Z,27.00
2022-08-28T10:09:37.209Z,25.52
2022-08-28T10:12:31.172Z,24.88
2022-08-28T10:15:17.967Z,26.95
2022-08-28T10:17:45.018Z,26.48
2022-08-28T10:20:15.504Z,27.98
2022-08-28T10:22:54.914Z,25.98
2022-08-28T10:25:22.036Z,27.85
2022-08-28T10:27:53.565Z,28.23
2022-08-28T10:30:22.954Z,26.88
2022-08-28T10:33:10.339Z,28.48
2022-08-28T10:35:57.692Z,26.27
2022-08-28T10:38:30.351Z,25.63
2022-08-28T10:41:06.665Z,25.67
2022-08-28T10:43:35.827Z,28.48
2022-08-28T10:46:06.845Z,26.23
2022-08-28T10:48:39.026Z,25.30
2022-08-28T10:51:14.357Z,27.85
2022-08-28T10:53:44.521Z,28.08
2022-08-28T10:56:16.250Z,25.77
2022-08-28T10:58:43.409Z,26.75
2022-08-28T11:01:13.523Z,25.95
2022-08-28T11:03:46.093Z,26.88
2022-08-28T11:06:30.449Z,26.02
2022-08-28T11:08:59.564Z,24.02
2022-08-28T11:11:52.841Z,23.33
2022-08-28T11:14:48.441Z,25.55
2022-08-28T11:17:27.777Z,26.92
2022-08-28T11:20:04.352Z,24.10
2022-08-28T11:22:36.500Z,24.95
2022-08-28T11:25:18.809Z,28.02
2022-08-28T11:28:14.589Z,25.42
2022-08-28T11:30:42.813Z,28.48
2022-08-28T11:33:30.502Z,25.27
2022-08-28T11:35:57.602Z,25.88
2022-08-28T11:38:43.373Z,24.65
2022-08-28T11:41:22.487Z,24.13
2022-08-28T11:43:52.354Z,25.35
2022-08-28T11:46:33.415Z,23.98
2022-08-28T11:49:02.183Z,24.33
2022-08-28T11:51:38.479Z,23.17
2022-08-28T11:54:21.227Z,25.25
2022-08-28T11:56:54.517Z,24.23
2022-08-28T11:59:47.661Z,30.92
2022-08-28T12:02:33.438Z,24.23
2022-08-28T12:05:00.596Z,21.80
2022-08-28T12:07:34.806Z,23.48
2022-08-28T12:10:05.282Z,20.30
2022-08-28T12:12:47.455Z,21.48
2022-08-28T12:15:26.644Z,21.30
2022-08-28T12:17:58.616Z,22.30
2022-08-28T12:20:44.394Z,19.33
2022-08-28T12:23:23.808Z,21.90
2022-08-28T12:25:52.140Z,18.92
2022-08-28T12:28:25.977Z,19.25
2022-08-28T12:33:52.741Z,19.88
2022-08-28T12:36:26.519Z,18.05
2022-08-28T12:38:55.188Z,17.88
2022-08-28T12:41:24.501Z,19.13
2022-08-28T12:43:55.563Z,18.38
2022-08-28T12:46:23.351Z,18.50
2022-08-28T12:49:01.138Z,18.75
2022-08-28T12:51:29.498Z,19.25
2022-08-28T12:53:58.359Z,18.60
2022-08-28T12:56:26.693Z,22.95
2022-08-28T12:58:53.829Z,21.67
2022-08-28T13:01:26.465Z,20.10
2022-08-28T13:03:55.312Z,20.95
2022-08-28T13:06:28.955Z,22.20
2022-08-28T13:09:04.766Z,20.55
2022-08-28T13:11:34.644Z,20.15
2022-08-28T13:14:01.780Z,19.25
2022-08-28T13:16:40.397Z,19.30
2022-08-28T13:19:07.962Z,19.08
2022-08-28T13:21:37.191Z,19.77
2022-08-28T13:24:22.800Z,18.77
2022-08-28T13:27:01.533Z,19.77
2022-08-28T13:29:28.839Z,23.85
2022-08-28T13:31:58.507Z,21.55
2022-08-28T13:34:27.447Z,22.23
2022-08-28T13:36:57.970Z,20.80
2022-08-28T13:39:25.048Z,17.67
2022-08-28T13:42:00.127Z,19.60
2022-08-28T13:44:32.574Z,20.15
2022-08-28T13:47:00.405Z,20.70
2022-08-28T13:49:28.075Z,19.83
2022-08-28T13:51:56.102Z,21.83
2022-08-28T13:54:24.007Z,19.80
2022-08-28T13:56:53.121Z,17.80
2022-08-28T13:59:20.774Z,18.05
2022-08-28T14:02:06.588Z,19.55
2022-08-28T14:04:33.729Z,17.70
2022-08-28T14:07:00.872Z,18.45
2022-08-28T14:09:28.019Z,18.40
2022-08-28T14:11:55.715Z,17.15
2022-08-28T14:14:22.992Z,16.83
2022-08-28T14:16:52.575Z,19.13
2022-08-28T14:19:19.918Z,19.25
2022-08-28T14:21:47.111Z,17.77
2022-08-28T14:24:14.233Z,18.33
2022-08-28T14:26:42.055Z,17.40
2022-08-28T14:29:10.374Z,16.08
2022-08-28T14:31:37.708Z,17.70
2022-08-28T14:34:05.937Z,17.15
2022-08-28T14:36:33.102Z,16.58
2022-08-28T14:39:05.831Z,15.95
2022-08-28T14:41:34.308Z,18.33
2022-08-28T14:44:01.412Z,17.25
2022-08-28T14:46:30.374Z,18.50
2022-08-28T14:49:09.043Z,16.65
2022-08-28T14:51:37.232Z,17.45
2022-08-28T14:54:05.322Z,19.30
2022-08-28T14:56:32.884Z,17.80
2022-08-28T14:59:00.518Z,18.50
2022-08-28T15:01:39.777Z,20.65
2022-08-28T15:04:09.787Z,17.45
2022-08-28T15:06:37.064Z,16.70
2022-08-28T15:09:04.249Z,17.05
2022-08-28T15:11:31.445Z,15.52
2022-08-28T15:13:59.325Z,14.52
2022-08-28T15:16:30.283Z,17.15
2022-08-28T15:18:58.285Z,15.65
2022-08-28T15:21:32.916Z,14.15
2022-08-28T15:24:01.056Z,14.00
2022-08-28T15:26:28.544Z,12.18
2022-08-28T15:28:58.199Z,16.25
2022-08-28T15:31:25.491Z,15.57
2022-08-28T15:33:52.864Z,14.90
2022-08-28T15:36:20.058Z,16.02
2022-08-28T15:39:05.754Z,14.45
2022-08-28T15:41:32.920Z,15.93
2022-08-28T15:44:01.675Z,15.95
2022-08-28T15:46:33.624Z,12.93
2022-08-28T15:49:05.366Z,13.93
2022-08-28T15:51:36.206Z,15.13
2022-08-28T15:54:02.899Z,14.15
2022-08-28T15:56:29.620Z,16.92
2022-08-28T15:58:56.562Z,17.40
2022-08-28T16:01:23.302Z,13.63
2022-08-28T16:03:50.042Z,14.13
2022-08-28T16:06:19.902Z,18.20
2022-08-28T16:08:47.495Z,14.35
2022-08-28T16:11:22.976Z,16.77
2022-08-28T16:13:51.087Z,15.00
2022-08-28T16:16:18.751Z,13.60
2022-08-28T16:18:45.700Z,14.95
2022-08-28T16:21:13.226Z,18.75
2022-08-28T16:23:40.022Z,17.33
2022-08-28T16:26:07.395Z,20.08
2022-08-28T16:28:35.477Z,18.48
2022-08-28T16:31:07.353Z,25.67
2022-08-28T16:33:34.980Z,18.27
2022-08-28T16:36:07.527Z,18.02
2022-08-28T16:38:37.433Z,15.02
2022-08-28T16:41:04.118Z,12.40
2022-08-28T16:43:30.811Z,14.68
2022-08-28T16:45:57.556Z,12.40
2022-08-28T16:48:24.168Z,14.45
2022-08-28T16:50:50.805Z,13.82
2022-08-28T16:53:20.059Z,14.50
2022-08-28T16:55:53.767Z,14.75
2022-08-28T16:58:20.647Z,13.45
2022-08-28T17:00:52.905Z,15.15
2022-08-28T17:03:26.168Z,12.98
2022-08-28T17:05:54.949Z,17.42
2022-08-28T17:08:21.797Z,16.00
2022-08-28T17:10:48.483Z,16.67
2022-08-28T17:13:15.325Z,16.02
2022-08-28T17:15:42.119Z,14.48
2022-08-28T17:18:08.945Z,17.60
2022-08-28T17:20:54.051Z,16.73
2022-08-28T17:23:20.740Z,17.08
2022-08-28T17:25:47.468Z,18.15
2022-08-28T17:28:15.239Z,17.00
2022-08-28T17:30:41.996Z,17.60
2022-08-28T17:33:08.840Z,15.35
2022-08-28T17:35:41.878Z,21.25
2022-08-28T17:38:08.993Z,15.88
2022-08-28T17:40:35.942Z,14.50
2022-08-28T17:43:03.557Z,15.60
2022-08-28T17:45:30.194Z,17.05
2022-08-28T17:47:57.014Z,16.15
2022-08-28T17:50:24.033Z,16.58
2022-08-28T17:52:50.711Z,18.08
2022-08-28T17:55:19.192Z,16.98
2022-08-28T17:57:45.855Z,16.33
2022-08-28T18:00:16.226Z,15.80
2022-08-28T18:02:44.318Z,15.77
2022-08-28T18:05:13.296Z,15.43
2022-08-28T18:07:40.334Z,16.80
2022-08-28T18:10:09.478Z,16.23
2022-08-28T18:12:36.131Z,17.30
2022-08-28T18:15:03.596Z,17.52
2022-08-28T18:17:30.374Z,16.08
2022-08-28T18:19:57.353Z,19.08
2022-08-28T18:22:29.005Z,17.17
2022-08-28T18:24:56.423Z,16.63
2022-08-28T18:27:26.443Z,18.20
2022-08-28T18:29:53.695Z,16.17
2022-08-28T18:32:20.351Z,16.98
2022-08-28T18:34:47.101Z,16.60
2022-08-28T18:37:13.781Z,20.20
2022-08-28T18:39:40.472Z,17.15
2022-08-28T18:42:09.689Z,20.13
2022-08-28T18:44:36.355Z,18.55
2022-08-28T18:47:03.107Z,17.83
2022-08-28T18:49:29.834Z,16.92
2022-08-28T18:51:56.491Z,16.65
2022-08-28T18:54:23.302Z,19.30
2022-08-28T18:56:50.526Z,19.27
2022-08-28T18:59:17.751Z,17.33
2022-08-28T19:01:44.795Z,15.73
2022-08-28T19:04:11.578Z,20.15
2022-08-28T19:06:40.054Z,17.58
2022-08-28T19:09:06.748Z,17.70
2022-08-28T19:11:33.835Z,20.20
2022-08-28T19:14:03.810Z,18.83
2022-08-28T19:16:32.039Z,19.52
2022-08-28T19:18:58.736Z,19.42
2022-08-28T19:21:26.453Z,17.60
2022-08-28T19:23:55.625Z,18.15
2022-08-28T19:26:24.505Z,19.15
2022-08-28T19:28:51.490Z,19.67
2022-08-28T19:31:18.646Z,16.35
2022-08-28T19:33:47.052Z,18.88
2022-08-28T19:36:15.304Z,22.17
2022-08-28T19:38:42.452Z,18.40
2022-08-28T19:41:11.189Z,18.73
2022-08-28T19:43:44.574Z,19.45
2022-08-28T19:46:19.328Z,18.95
2022-08-28T19:48:48.013Z,18.40
2022-08-28T19:51:17.677Z,16.98
2022-08-28T19:53:56.798Z,20.08
2022-08-28T19:56:27.562Z,19.00
2022-08-28T19:58:54.963Z,18.25
2022-08-28T20:01:21.762Z,18.90
2022-08-28T20:03:48.576Z,20.08
2022-08-28T20:06:15.239Z,20.00
2022-08-28T20:08:41.916Z,17.23
2022-08-28T20:11:09.650Z,18.80
2022-08-28T20:13:36.351Z,20.13
2022-08-28T20:16:04.724Z,17.80
2022-08-28T20:18:31.437Z,20.70
2022-08-28T20:20:58.070Z,18.85
2022-08-28T20:23:24.742Z,17.85
2022-08-28T20:25:51.610Z,17.55
2022-08-28T20:28:19.399Z,18.70
2022-08-28T20:30:46.727Z,17.55
2022-08-28T20:33:13.636Z,18.35
2022-08-28T20:35:40.418Z,17.30
2022-08-28T20:38:07.349Z,19.40
2022-08-28T20:40:34.233Z,19.33
2022-08-28T20:43:01.051Z,18.20
2022-08-28T20:45:28.329Z,17.10
2022-08-28T20:47:54.949Z,16.90
2022-08-28T20:50:21.593Z,17.45
2022-08-28T20:52:48.279Z,18.90
2022-08-28T20:55:14.966Z,16.45
2022-08-28T20:57:41.979Z,18.75
2022-08-28T21:00:10.415Z,20.17
2022-08-28T21:02:37.475Z,20.95
2022-08-28T21:05:05.231Z,18.40
2022-08-28T21:07:33.980Z,19.85
2022-08-28T21:10:06.625Z,20.13
2022-08-28T21:12:38.497Z,21.17
2022-08-28T21:15:08.341Z,19.60
2022-08-28T21:17:35.060Z,19.75
2022-08-28T21:20:05.781Z,21.80
2022-08-28T21:22:35.242Z,17.90
2022-08-28T21:25:04.310Z,19.58
2022-08-28T21:27:31.042Z,19.70
2022-08-28T21:29:59.815Z,19.48
2022-08-28T21:32:27.739Z,17.27
2022-08-28T21:34:55.085Z,16.83
2022-08-28T21:37:22.592Z,19.38
2022-08-28T21:39:49.372Z,19.25
2022-08-28T21:42:16.075Z,18.50
2022-08-28T21:44:48.305Z,21.25
2022-08-28T21:47:21.354Z,18.13
2022-08-28T21:49:50.055Z,19.52
2022-08-28T21:52:18.279Z,17.35
2022-08-28T21:54:44.984Z,17.80
2022-08-28T21:57:11.723Z,17.88
2022-08-28T21:59:38.898Z,18.83
2022-08-28T22:02:06.364Z,18.23
2022-08-28T22:04:33.687Z,18.60
2022-08-28T22:07:00.404Z,20.88
2022-08-28T22:09:27.201Z,18.13
2022-08-28T22:11:53.895Z,19.20
2022-08-28T22:14:20.970Z,18.30
2022-08-28T22:16:47.798Z,18.60
2022-08-28T22:19:14.535Z,17.83
2022-08-28T22:22:00.002Z,19.25
2022-08-28T22:24:26.658Z,19.92
2022-08-28T22:26:57.538Z,17.27
2022-08-28T22:29:24.799Z,16.67
2022-08-28T22:31:52.423Z,18.15
2022-08-28T22:34:19.116Z,18.73
2022-08-28T22:36:45.774Z,18.77
2022-08-28T22:39:12.421Z,18.73
2022-08-28T22:41:39.060Z,17.35
2022-08-28T22:44:06.995Z,18.90
2022-08-28T22:46:33.675Z,17.73
2022-08-28T22:49:00.381Z,21.08
2022-08-28T22:51:27.056Z,18.77
2022-08-28T22:53:54.411Z,16.98
2022-08-28T22:56:21.480Z,18.60
2022-08-28T22:58:48.145Z,18.27
2022-08-28T23:01:19.440Z,17.23
2022-08-28T23:03:46.795Z,16.83
2022-08-28T23:06:13.861Z,19.02
2022-08-28T23:08:40.992Z,17.38
2022-08-28T23:11:07.829Z,16.80
2022-08-28T23:13:34.811Z,22.10
2022-08-28T23:16:02.087Z,18.00
2022-08-28T23:18:38.005Z,18.30
2022-08-28T23:21:13.230Z,18.90
2022-08-28T23:23:39.892Z,17.83
2022-08-28T23:26:11.848Z,19.08
2022-08-28T23:28:39.047Z,19.00
2022-08-28T23:31:05.846Z,19.60
2022-08-28T23:33:32.667Z,18.45
2022-08-28T23:35:59.394Z,17.08
2022-08-28T23:38:26.140Z,18.65
2022-08-28T23:40:52.886Z,19.73
2022-08-28T23:43:19.623Z,16.42
2022-08-28T23:45:46.798Z,17.33
2022-08-28T23:48:15.147Z,18.33
2022-08-28T23:50:42.459Z,18.15
2022-08-28T23:53:10.153Z,17.40
2022-08-28T23:55:36.807Z,18.02
2022-08-28T23:58:04.058Z,17.73
